Time;durP1;ratioP1;P1;durP2;ratioP2;P2;SDS_P1;SDS_P2;PMS_P1;PMS_P2;Temp;Humidity;BMP_temperature;BMP_pressure;BME280_temperature;BME280_humidity;BME280_pressure;Samples;Min_cycle;Max_cycle;Signal;HPM_P1;HPM_P2
2023/11/02 00:01:11;;;;;;;30.63;18.97;;;;;;;9.49;99.15;100350.58;125247;1105;102134;-78
2023/11/02 00:03:52;;;;;;;29.60;18.13;;;;;;;9.44;99.08;100349.52;125048;1105;104195;-78
2023/11/02 00:06:31;;;;;;;30.30;19.00;;;;;;;9.44;99.62;100351.23;124900;1105;104866;-78
2023/11/02 00:09:18;;;;;;;33.73;18.30;;;;;;;9.42;99.22;100350.28;125141;1105;101862;-78
2023/11/02 00:11:54;;;;;;;33.60;18.97;;;;;;;9.42;99.60;100347.67;125498;1093;104216;-75
2023/11/02 00:14:30;;;;;;;29.80;18.40;;;;;;;9.44;99.39;100348.61;124928;1105;104211;-78
2023/11/02 00:17:02;;;;;;;30.07;19.70;;;;;;;9.46;99.93;100354.82;125250;1103;102083;-78
2023/11/02 00:19:37;;;;;;;40.97;18.50;;;;;;;9.45;99.42;100360.88;125143;1105;104355;-77
2023/11/02 00:22:10;;;;;;;147.77;18.73;;;;;;;9.37;99.18;100351.84;125030;1105;104533;-78
2023/11/02 00:24:44;;;;;;;48.05;17.45;;;;;;;9.29;98.99;100354.17;125277;1105;104163;-78
2023/11/02 00:27:16;;;;;;;32.90;17.10;;;;;;;9.29;99.28;100362.03;125679;1105;102041;-78
2023/11/02 00:29:48;;;;;;;42.17;16.63;;;;;;;9.31;99.64;100358.61;125360;1105;104201;-78
2023/11/02 00:32:21;;;;;;;35.17;16.50;;;;;;;9.32;99.36;100359.53;125663;1105;102115;-78
2023/11/02 01:01:25;;;;;;;132.13;14.07;;;;;;;8.84;98.56;100365.50;127543;1089;102902;31
2023/11/02 01:03:56;;;;;;;65.37;15.43;;;;;;;8.88;98.99;100361.27;127818;1089;103090;-77
2023/11/02 01:06:28;;;;;;;52.30;13.90;;;;;;;8.91;99.03;100364.02;127821;1089;102995;-75
2023/11/02 01:11:53;;;;;;;31.80;12.13;;;;;;;8.89;98.62;100363.95;127646;1089;102785;-79
2023/11/02 01:14:47;;;;;;;27.40;12.60;;;;;;;8.89;98.33;100363.06;127451;1093;104328;-77
2023/11/02 01:17:30;;;;;;;85.87;11.95;;;;;;;8.86;98.45;100365.56;127352;1093;104169;-76
2023/11/02 01:20:06;;;;;;;83.13;12.73;;;;;;;8.79;98.28;100351.34;127780;1089;107885;-78
2023/11/02 01:25:26;;;;;;;26.67;11.30;;;;;;;8.74;98.46;100358.09;127041;1090;104192;-77
2023/11/02 01:28:01;;;;;;;21.63;11.87;;;;;;;8.72;98.09;100360.64;126518;1092;104219;-77
2023/11/02 01:31:14;;;;;;;81.13;12.67;;;;;;;8.70;97.87;100364.05;126258;1093;102489;-76
2023/11/02 01:34:03;;;;;;;83.37;11.67;;;;;;;8.61;98.26;100362.81;126430;1093;104281;-77
2023/11/02 01:36:44;;;;;;;48.83;11.80;;;;;;;8.57;98.42;100365.24;126037;1093;104328;-79
2023/11/02 01:39:41;;;;;;;120.53;13.30;;;;;;;8.57;98.79;100362.63;126381;1087;105430;-79
2023/11/02 01:42:16;;;;;;;70.73;12.37;;;;;;;8.59;99.05;100367.11;126439;1086;104216;-79
2023/11/02 01:44:54;;;;;;;38.20;12.43;;;;;;;8.64;99.40;100364.68;126855;1086;102021;-79
2023/11/02 01:47:39;;;;;;;37.13;12.17;;;;;;;8.68;99.03;100373.53;126475;1086;104308;-79
2023/11/02 01:50:18;;;;;;;49.67;12.17;;;;;;;8.70;99.31;100372.78;126362;1086;104654;-79
2023/11/02 01:53:34;;;;;;;59.23;12.30;;;;;;;8.72;98.71;100370.23;126298;1089;104280;-79
2023/11/02 01:56:37;;;;;;;45.80;12.60;;;;;;;8.70;99.21;100369.28;125808;1089;104338;-79
2023/11/02 01:59:20;;;;;;;29.40;11.73;;;;;;;8.67;98.93;100371.77;125818;1089;104830;-79
2023/11/02 02:01:58;;;;;;;24.67;11.87;;;;;;;8.65;98.82;100371.70;126038;1089;104257;-79
2023/11/02 02:04:37;;;;;;;46.70;12.13;;;;;;;8.63;98.65;100366.41;126199;1087;104401;-79
2023/11/02 02:51:11;;;;;;;74.40;9.43;;;;;;;8.13;98.30;100362.50;124804;1102;104360;-77
2023/11/02 02:53:44;;;;;;;44.15;9.20;;;;;;;8.18;98.62;100357.47;124360;1105;104399;-77
2023/11/02 02:56:16;;;;;;;61.00;9.97;;;;;;;8.20;98.46;100354.11;125156;1105;104159;-77
2023/11/02 02:58:55;;;;;;;38.13;9.83;;;;;;;8.24;98.16;100358.65;125071;1103;104293;-77
2023/11/02 03:01:29;;;;;;;30.50;9.33;;;;;;;8.26;98.43;100354.37;125024;1105;107906;-77
2023/11/02 03:04:02;;;;;;;70.63;10.10;;;;;;;8.24;98.14;100348.19;125170;1105;104297;-78
2023/11/02 03:06:34;;;;;;;121.17;9.57;;;;;;;8.20;97.91;100348.00;125269;1105;104219;-77
2023/11/02 03:09:06;;;;;;;70.87;9.67;;;;;;;8.19;98.11;100351.42;125116;1105;104185;-78
2023/11/02 03:11:38;;;;;;;48.87;9.50;;;;;;;8.20;98.68;100353.22;125634;1106;102163;-78
2023/11/02 03:14:13;;;;;;;29.40;8.70;;;;;;;8.21;98.26;100348.06;124892;1102;104290;-77
2023/11/02 03:16:47;;;;;;;123.00;10.00;;;;;;;8.23;98.66;100349.02;125826;1105;101715;-79
2023/11/02 03:19:43;;;;;;;105.43;9.60;;;;;;;8.18;98.41;100347.93;126084;1105;102019;-78
2023/11/02 03:22:17;;;;;;;118.87;9.63;;;;;;;8.14;97.91;100348.61;126254;1101;101683;-77
2023/11/02 03:25:09;;;;;;;113.30;9.33;;;;;;;8.11;98.02;100348.48;125927;1105;104651;-79
2023/11/02 03:27:55;;;;;;;55.55;9.00;;;;;;;8.12;98.21;100354.59;125512;1105;101903;-76
2023/11/02 03:30:37;;;;;;;74.63;9.63;;;;;;;8.10;97.83;100352.83;125547;1102;104251;-76
2023/11/02 03:33:17;;;;;;;49.77;8.43;;;;;;;8.12;97.85;100355.51;125701;1102;104275;-78
2023/11/02 03:35:59;;;;;;;64.70;8.60;;;;;;;8.14;98.21;100363.41;125665;1102;101762;-78
2023/11/02 03:38:43;;;;;;;72.83;8.67;;;;;;;8.15;98.13;100360.87;125738;1102;104246;-77
2023/11/02 03:41:27;;;;;;;75.47;8.13;;;;;;;8.13;97.99;100367.73;125615;1101;101741;-79
2023/11/02 03:52:57;;;;;;;86.43;8.50;;;;;;;7.96;97.48;100355.66;125513;1099;104187;-78
2023/11/02 03:58:37;;;;;;;59.47;9.27;;;;;;;8.00;97.89;100358.47;124897;1099;104264;-78
2023/11/02 04:01:22;;;;;;;51.17;9.10;;;;;;;8.05;97.98;100362.16;125199;1099;102502;31
2023/11/02 04:04:04;;;;;;;49.50;9.30;;;;;;;8.03;97.64;100368.17;125578;1108;104243;-76
2023/11/02 04:12:34;;;;;;;43.57;9.27;;;;;;;8.01;98.55;100357.66;126192;1097;102700;-75
2023/11/02 04:15:09;;;;;;;68.47;9.20;;;;;;;8.01;98.21;100361.97;125665;1096;104182;-78
2023/11/02 04:17:41;;;;;;;56.47;8.70;;;;;;;7.99;97.91;100363.63;126126;1099;102759;-75
2023/11/02 04:20:14;;;;;;;66.67;9.33;;;;;;;7.99;98.07;100364.51;125981;1099;102371;-78
2023/11/02 04:22:47;;;;;;;54.30;9.20;;;;;;;8.02;97.93;100368.98;125818;1096;102368;-76
2023/11/02 04:25:19;;;;;;;53.20;8.80;;;;;;;8.05;98.56;100371.73;125931;1099;102080;-75
2023/11/02 04:27:50;;;;;;;42.20;9.03;;;;;;;8.10;98.13;100378.05;125678;1108;101809;-74
2023/11/02 04:33:18;;;;;;;48.07;9.67;;;;;;;8.16;98.79;100370.47;125859;1096;103425;-77
2023/11/02 04:35:49;;;;;;;62.40;9.90;;;;;;;8.15;98.70;100375.63;125351;1108;104107;-79
2023/11/02 04:38:20;;;;;;;85.03;9.63;;;;;;;8.14;98.25;100379.09;125055;1109;102089;-77
2023/11/02 04:40:55;;;;;;;87.13;9.03;;;;;;;8.12;98.06;100376.42;125353;1108;101880;-79
2023/11/02 04:43:26;;;;;;;50.90;8.60;;;;;;;8.12;98.61;100381.64;125005;1108;104207;-79
2023/11/02 04:45:58;;;;;;;40.53;8.60;;;;;;;8.12;98.14;100376.42;124057;1108;102125;-80
2023/11/02 04:48:29;;;;;;;85.23;9.53;;;;;;;8.11;98.64;100372.00;125017;1108;104092;-77
2023/11/02 04:51:00;;;;;;;83.20;9.67;;;;;;;8.03;97.65;100376.89;124783;1109;104188;-81
2023/11/02 04:53:32;;;;;;;45.97;10.07;;;;;;;7.97;98.09;100376.63;124247;1109;104165;-79
2023/11/02 04:56:03;;;;;;;57.83;9.90;;;;;;;7.96;98.23;100379.17;124208;1108;104241;-81
2023/11/02 04:58:34;;;;;;;33.83;9.40;;;;;;;7.97;98.20;100387.08;123845;1109;104368;-80
2023/11/02 05:01:09;;;;;;;73.33;10.30;;;;;;;8.00;99.04;100384.59;123970;1109;104418;-79
2023/11/02 05:03:40;;;;;;;32.43;10.20;;;;;;;8.05;99.11;100385.69;124023;1109;104280;-78
2023/11/02 05:06:12;;;;;;;45.97;10.03;;;;;;;8.09;99.04;100378.89;124577;1109;104197;-78
2023/11/02 05:08:44;;;;;;;26.93;10.27;;;;;;;8.14;99.11;100373.87;123851;1108;104226;-79
2023/11/02 05:11:15;;;;;;;40.33;10.37;;;;;;;8.16;98.38;100378.31;123168;1109;104291;-82
2023/11/02 05:13:47;;;;;;;34.65;10.40;;;;;;;8.15;98.56;100376.55;122953;1108;104736;-78
2023/11/02 05:16:18;;;;;;;83.23;12.87;;;;;;;8.12;98.60;100371.19;122992;1109;104211;-81
2023/11/02 05:18:50;;;;;;;47.43;13.60;;;;;;;8.12;98.66;100371.19;123440;1109;104291;-80
2023/11/02 05:21:21;;;;;;;51.57;12.77;;;;;;;8.18;98.96;100367.92;123242;1109;104181;-76
2023/11/02 05:23:53;;;;;;;54.47;11.67;;;;;;;8.18;98.87;100368.84;123176;1109;104271;-81
2023/11/02 05:26:24;;;;;;;36.10;12.50;;;;;;;8.19;99.10;100375.83;123240;1109;104297;-78
2023/11/02 05:28:56;;;;;;;28.90;10.80;;;;;;;8.24;98.88;100376.95;123328;1109;104293;-80
2023/11/02 05:31:27;;;;;;;27.00;11.03;;;;;;;8.28;99.53;100368.39;123431;1108;104740;-81
2023/11/02 05:33:58;;;;;;;50.30;11.97;;;;;;;8.34;99.03;100373.00;123513;1109;104290;-80
2023/11/02 05:36:30;;;;;;;40.07;11.73;;;;;;;8.38;98.90;100377.55;123327;1109;104274;-81
2023/11/02 05:39:05;;;;;;;50.50;11.17;;;;;;;8.44;99.16;100375.19;123406;1109;104421;-83
2023/11/02 05:41:37;;;;;;;31.93;11.47;;;;;;;8.47;99.43;100369.20;123465;1108;104325;-78
2023/11/02 05:44:09;;;;;;;42.83;10.57;;;;;;;8.48;99.24;100381.47;123489;1109;104371;-80
2023/11/02 05:46:40;;;;;;;35.77;11.20;;;;;;;8.47;98.80;100384.02;123626;1109;104302;-79
2023/11/02 05:49:12;;;;;;;33.77;12.60;;;;;;;8.50;98.68;100384.14;123798;1108;104364;-81
2023/11/02 05:51:47;;;;;;;27.20;13.07;;;;;;;8.53;99.23;100382.54;123802;1108;104255;-79
2023/11/02 05:54:19;;;;;;;59.10;12.23;;;;;;;8.60;99.26;100383.67;123855;1109;104265;-81
2023/11/02 05:56:51;;;;;;;35.77;13.30;;;;;;;8.64;99.19;100385.61;123719;1109;104412;-81
2023/11/02 05:59:23;;;;;;;39.80;14.80;;;;;;;8.66;99.38;100380.44;123830;1109;104316;-80
2023/11/02 06:01:54;;;;;;;45.15;14.90;;;;;;;8.69;99.04;100384.06;123999;1109;104746;-81
2023/11/02 06:04:32;;;;;;;32.93;13.30;;;;;;;8.76;99.68;100383.50;123793;1108;104414;-77
2023/11/02 06:07:05;;;;;;;35.70;14.50;;;;;;;8.83;99.47;100391.59;123412;1108;104309;-76
2023/11/02 06:09:37;;;;;;;50.47;14.43;;;;;;;8.85;99.54;100384.70;123460;1109;104420;-78
2023/11/02 06:12:10;;;;;;;35.77;14.07;;;;;;;8.86;99.04;100384.76;124185;1109;104248;-83
2023/11/02 06:14:42;;;;;;;52.78;14.53;;;;;;;8.89;99.05;100379.65;124151;1109;104351;-80
2023/11/02 06:17:25;;;;;;;34.80;14.00;;;;;;;8.90;98.96;100378.83;123961;1109;102486;-78
2023/11/02 06:20:05;;;;;;;49.73;14.90;;;;;;;8.84;98.73;100368.11;123881;1109;104406;-77
2023/11/02 06:22:38;;;;;;;33.53;15.40;;;;;;;8.83;98.93;100379.40;124744;1107;102795;-78
2023/11/02 06:25:11;;;;;;;51.50;15.10;;;;;;;8.81;98.73;100383.69;124302;1108;104243;-78
2023/11/02 06:27:43;;;;;;;31.83;16.30;;;;;;;8.84;99.53;100375.96;125625;1107;102918;-79
2023/11/02 06:30:16;;;;;;;46.37;14.63;;;;;;;8.86;99.41;100376.03;125080;1108;104222;-78
2023/11/02 06:32:47;;;;;;;47.63;14.97;;;;;;;8.87;98.85;100373.47;124129;1109;102771;-78
2023/11/02 06:35:19;;;;;;;71.43;15.43;;;;;;;8.87;99.34;100369.97;124171;1108;104268;-77
2023/11/02 06:38:04;;;;;;;46.40;15.77;;;;;;;8.89;99.09;100368.30;124506;1109;104765;-78
2023/11/02 06:40:36;;;;;;;47.93;15.23;;;;;;;8.91;98.98;100367.55;124955;1109;102654;-79
2023/11/02 06:43:08;;;;;;;39.40;15.00;;;;;;;8.95;99.39;100363.31;124918;1108;104275;-80
2023/11/02 06:46:20;;;;;;;52.60;15.67;;;;;;;8.98;99.25;100368.67;124429;1109;104242;-81
2023/11/02 06:48:55;;;;;;;39.73;14.87;;;;;;;9.03;99.29;100367.13;124628;1109;111503;-77
2023/11/02 06:51:28;;;;;;;39.80;15.63;;;;;;;9.06;98.97;100369.86;124057;1108;104232;-79
2023/11/02 06:54:05;;;;;;;33.73;15.73;;;;;;;9.14;99.57;100367.55;124838;1109;102601;-79
2023/11/02 06:56:39;;;;;;;37.63;15.47;;;;;;;9.17;99.25;100370.28;124147;1109;104373;-78
2023/11/02 06:59:15;;;;;;;29.67;14.97;;;;;;;9.23;99.28;100364.41;124940;1109;102524;-80
2023/11/02 07:01:50;;;;;;;54.93;15.83;;;;;;;9.29;99.81;100355.05;124873;1108;103904;-80
2023/11/02 07:04:29;;;;;;;29.60;14.37;;;;;;;9.32;99.75;100349.94;125126;1109;101842;-78
2023/11/02 07:07:06;;;;;;;38.00;15.90;;;;;;;9.33;99.31;100343.88;124568;1109;104354;-76
2023/11/02 07:09:38;;;;;;;32.93;16.03;;;;;;;9.35;99.13;100343.94;124722;1109;109014;-76
2023/11/02 07:12:14;;;;;;;34.30;15.33;;;;;;;9.40;99.45;100346.73;124029;1108;104210;-79
2023/11/02 07:14:51;;;;;;;31.43;14.47;;;;;;;9.41;99.44;100349.41;124997;1109;104223;-79
2023/11/02 07:17:23;;;;;;;49.53;16.13;;;;;;;9.38;98.77;100354.52;125647;1107;102218;-79
2023/11/02 07:19:55;;;;;;;30.80;16.17;;;;;;;9.42;99.65;100353.79;125600;1108;118921;-78
2023/11/02 07:22:29;;;;;;;39.70;15.27;;;;;;;9.48;99.26;100351.41;125476;1108;101921;-80
2023/11/02 07:25:02;;;;;;;31.57;14.90;;;;;;;9.51;99.47;100351.52;125501;1106;102304;-81
2023/11/02 07:27:35;;;;;;;32.13;16.57;;;;;;;9.53;99.71;100355.08;125194;1107;103045;-81
2023/11/02 07:30:37;;;;;;;31.00;15.20;;;;;;;9.58;99.39;100360.48;125051;1109;102843;-80
2023/11/02 07:36:31;;;;;;;34.17;15.93;;;;;;;9.63;99.22;100355.42;124869;1109;104076;-80
2023/11/02 07:39:08;;;;;;;40.93;17.83;;;;;;;9.66;99.38;100356.45;124811;1109;104210;-78
2023/11/02 07:41:43;;;;;;;44.17;17.10;;;;;;;9.69;99.19;100356.56;124825;1107;102788;-81
2023/11/02 07:44:25;;;;;;;38.33;17.77;;;;;;;9.73;99.22;100354.05;125001;1109;103181;-79
2023/11/02 07:46:57;;;;;;;42.33;17.57;;;;;;;9.76;99.16;100354.17;124743;1107;104328;-81
2023/11/02 07:49:32;;;;;;;37.95;17.90;;;;;;;9.77;99.09;100348.07;124189;1108;104181;-80
2023/11/02 07:52:03;;;;;;;43.53;19.67;;;;;;;9.77;98.98;100361.17;124022;1109;104290;-78
2023/11/02 07:54:41;;;;;;;36.50;20.03;;;;;;;9.74;99.35;100356.73;124009;1109;104258;-77
2023/11/02 07:57:16;;;;;;;45.43;18.40;;;;;;;9.79;99.09;100356.90;123759;1109;104210;-78
2023/11/02 07:59:47;;;;;;;33.27;18.97;;;;;;;9.86;99.19;100351.94;123953;1109;104295;-82
2023/11/02 08:02:22;;;;;;;41.90;20.20;;;;;;;9.93;99.30;100352.16;124125;1108;104266;-79
2023/11/02 08:04:58;;;;;;;48.90;20.30;;;;;;;9.98;99.10;100346.22;123955;1108;104425;-79
2023/11/02 08:07:31;;;;;;;35.65;18.92;;;;;;;10.05;99.20;100347.33;125009;1108;102804;-80
2023/11/02 08:10:13;;;;;;;36.57;21.43;;;;;;;10.14;99.39;100355.52;124988;1108;103620;-79
2023/11/02 08:12:47;;;;;;;37.10;21.87;;;;;;;10.24;99.62;100351.50;124917;1107;104283;-82
2023/11/02 08:15:19;;;;;;;37.83;20.83;;;;;;;10.32;99.30;100360.52;124842;1109;104146;-81
2023/11/02 08:17:51;;;;;;;39.73;22.63;;;;;;;10.45;99.94;100355.73;124801;1108;104274;-78
2023/11/02 08:20:43;;;;;;;39.57;22.90;;;;;;;10.53;99.48;100360.41;124945;1106;104165;-78
2023/11/02 08:23:16;;;;;;;46.40;24.13;;;;;;;10.63;99.84;100351.10;124996;1109;102167;-76
2023/11/02 08:25:49;;;;;;;40.40;23.17;;;;;;;10.74;99.71;100360.21;124842;1109;104172;-82
2023/11/02 08:28:23;;;;;;;40.83;23.63;;;;;;;10.79;99.36;100350.73;123867;1109;102660;-80
2023/11/02 08:31:00;;;;;;;41.33;25.27;;;;;;;10.78;99.37;100346.36;123945;1109;104181;-79
2023/11/02 08:33:33;;;;;;;40.70;25.60;;;;;;;10.74;99.58;100348.83;123814;1109;104239;-82
2023/11/02 08:36:18;;;;;;;46.73;25.67;;;;;;;10.78;99.83;100343.73;124206;1106;102054;-85
2023/11/02 08:38:53;;;;;;;43.50;26.37;;;;;;;10.83;99.49;100340.34;124785;1109;103173;-80
2023/11/02 08:41:31;;;;;;;46.10;27.17;;;;;;;10.83;99.61;100337.72;123926;1107;107845;-81
2023/11/02 08:44:04;;;;;;;46.60;28.10;;;;;;;10.84;99.31;100334.26;124095;1109;104210;-82
2023/11/02 08:46:40;;;;;;;47.67;29.32;;;;;;;10.86;99.77;100329.94;124211;1109;102201;-78
2023/11/02 08:49:14;;;;;;;50.63;30.47;;;;;;;10.91;99.66;100326.63;124246;1108;104290;-77
2023/11/02 08:51:48;;;;;;;49.13;31.10;;;;;;;10.94;99.38;100324.10;124122;1108;104213;-80
2023/11/02 08:54:24;;;;;;;50.27;30.27;;;;;;;10.96;99.42;100327.66;124096;1109;104175;-78
2023/11/02 08:56:56;;;;;;;54.70;31.80;;;;;;;11.00;99.34;100326.04;124197;1108;103103;-79
2023/11/02 08:59:28;;;;;;;48.10;30.70;;;;;;;11.01;99.27;100324.30;124108;1109;104259;-79
2023/11/02 09:02:08;;;;;;;48.70;30.50;;;;;;;11.07;99.36;100327.98;124231;1108;104265;-82
2023/11/02 09:04:41;;;;;;;47.43;29.67;;;;;;;11.11;99.10;100327.25;123981;1109;104249;-80
2023/11/02 09:07:32;;;;;;;47.50;29.47;;;;;;;11.19;99.18;100326.58;124045;1109;103353;-80
2023/11/02 09:10:08;;;;;;;45.00;28.90;;;;;;;11.29;99.53;100328.65;124139;1107;102075;-81
2023/11/02 09:12:40;;;;;;;44.57;27.60;;;;;;;11.41;99.56;100322.88;124583;1108;104226;-83
2023/11/02 09:15:16;;;;;;;42.37;27.30;;;;;;;11.47;99.20;100313.44;124035;1109;104271;-79
2023/11/02 09:17:51;;;;;;;40.67;25.00;;;;;;;11.49;98.74;100305.59;124359;1109;104223;-81
2023/11/02 09:20:24;;;;;;;37.83;24.70;;;;;;;11.50;98.89;100304.76;123949;1108;104258;-76
2023/11/02 09:23:02;;;;;;;39.27;23.87;;;;;;;11.58;99.17;100299.72;123946;1109;104184;-79
2023/11/02 09:26:00;;;;;;;42.77;24.90;;;;;;;11.71;99.27;100293.06;124772;1109;102714;-79
2023/11/02 09:28:34;;;;;;;36.90;22.77;;;;;;;11.82;99.53;100284.60;124581;1108;102820;-78
2023/11/02 09:31:17;;;;;;;;;;;;;;;11.90;98.70;100276.05;124288;1108;104357;-81
2023/11/02 09:33:53;;;;;;;34.50;20.87;;;;;;;11.98;99.24;100280.70;124821;1109;104191;-80
2023/11/02 09:39:18;;;;;;;40.20;22.53;;;;;;;12.17;99.15;100265.38;124807;1108;102998;-80
2023/11/02 09:42:12;;;;;;;36.73;22.17;;;;;;;12.26;99.23;100267.36;124787;1109;104171;-80
2023/11/02 09:44:44;;;;;;;40.37;21.90;;;;;;;12.29;99.41;100264.80;124897;1109;104226;-80
2023/11/02 09:47:20;;;;;;;38.47;22.47;;;;;;;12.37;98.91;100271.14;123997;1109;105339;-79
2023/11/02 09:49:52;;;;;;;34.70;19.27;;;;;;;12.43;98.91;100273.92;124121;1109;104274;-79
2023/11/02 09:52:25;;;;;;;32.45;18.65;;;;;;;12.44;98.46;100266.94;124611;1108;104193;-82
2023/11/02 09:55:16;;;;;;;;;;;;;;;;;;;;;
2023/11/02 09:58:39;;;;;;;31.23;16.57;;;;;;;12.66;98.29;100269.21;124767;1109;102576;-79
2023/11/02 10:01:18;;;;;;;28.30;16.10;;;;;;;12.76;98.78;100272.94;125211;1108;103586;-79
2023/11/02 10:04:17;;;;;;;27.23;16.00;;;;;;;12.84;98.11;100265.22;124575;1108;104216;-78
2023/11/02 10:07:05;;;;;;;29.50;16.57;;;;;;;12.93;98.37;100258.44;123779;1108;104270;-79
2023/11/02 10:09:54;;;;;;;28.47;16.93;;;;;;;13.06;98.19;100261.34;124701;1108;104203;-79
2023/11/02 10:12:42;;;;;;;28.63;16.10;;;;;;;13.32;98.39;100253.96;123860;1109;104324;-78
2023/11/02 10:15:58;;;;;;;25.23;14.47;;;;;;;13.54;98.44;100250.06;124072;1109;104210;-77
2023/11/02 10:19:00;;;;;;;28.67;14.15;;;;;;;13.79;97.62;100248.78;124949;1108;103150;-80
2023/11/02 10:21:39;;;;;;;22.97;14.07;;;;;;;14.00;97.40;100235.08;124798;1109;104258;-80
2023/11/02 10:24:11;;;;;;;24.03;13.47;;;;;;;14.15;97.33;100233.59;124884;1108;102366;-77
2023/11/02 10:26:44;;;;;;;24.67;13.83;;;;;;;14.29;97.04;100229.41;124024;1109;104233;-77
2023/11/02 10:29:16;;;;;;;25.07;13.30;;;;;;;14.40;96.54;100221.67;124109;1109;104188;-76
2023/11/02 10:31:52;;;;;;;23.30;13.33;;;;;;;14.43;95.61;100223.45;124176;1109;104294;-78
2023/11/02 10:34:34;;;;;;;22.93;13.33;;;;;;;14.43;96.26;100218.17;124210;1108;104242;-79
2023/11/02 10:37:08;;;;;;;23.37;13.50;;;;;;;14.50;95.63;100213.01;124333;1109;104735;-77
2023/11/02 10:39:42;;;;;;;23.93;13.30;;;;;;;14.60;96.18;100218.42;124334;1108;104236;-78
2023/11/02 10:42:19;;;;;;;23.83;14.23;;;;;;;14.69;95.99;100215.95;124255;1107;104324;-76
2023/11/02 10:48:39;;;;;;;24.00;13.45;;;;;;;14.86;94.69;100224.13;124550;1109;104268;-77
2023/11/02 10:55:15;;;;;;;26.10;14.77;;;;;;;14.87;94.80;100218.86;124005;1109;103150;-77
2023/11/02 10:57:55;;;;;;;25.37;15.10;;;;;;;14.84;94.09;100208.25;124196;1109;104274;-80
2023/11/02 11:00:42;;;;;;;23.37;13.33;;;;;;;14.82;94.11;100210.00;125032;1109;102214;-78
2023/11/02 11:03:18;;;;;;;24.10;12.30;;;;;;;14.79;93.47;100199.38;124796;1108;102126;-76
2023/11/02 11:05:55;;;;;;;20.17;11.50;;;;;;;14.79;94.07;100198.48;125022;1108;102256;-77
2023/11/02 11:08:46;;;;;;;23.23;12.07;;;;;;;14.79;93.69;100193.19;124331;1109;104158;-78
2023/11/02 11:11:47;;;;;;;;;;;;;;;;;;;;;
2023/11/02 11:14:22;;;;;;;25.20;11.93;;;;;;;14.84;92.75;100189.77;123948;1108;102595;-78
2023/11/02 11:16:56;;;;;;;23.03;12.13;;;;;;;14.84;93.00;100191.53;123693;1108;104329;-77
2023/11/02 11:19:33;;;;;;;19.33;10.80;;;;;;;14.82;93.57;100183.58;123910;1108;104258;-77
2023/11/02 11:22:17;;;;;;;20.27;11.00;;;;;;;14.79;92.54;100175.61;124397;1108;104188;-83
2023/11/02 11:24:59;;;;;;;18.73;10.13;;;;;;;14.76;92.33;100172.02;124124;1108;104375;-80
2023/11/02 11:27:40;;;;;;;18.97;10.30;;;;;;;14.78;92.33;100170.31;125579;1106;102235;-77
2023/11/02 11:30:38;;;;;;;19.97;11.10;;;;;;;14.79;91.65;100161.50;124084;1108;104236;-77
2023/11/02 11:33:39;;;;;;;19.03;10.57;;;;;;;14.77;91.02;100164.12;124762;1109;104721;-79
2023/11/02 11:36:24;;;;;;;21.33;10.63;;;;;;;14.78;91.78;100162.39;124109;1109;118884;-78
2023/11/02 11:38:57;;;;;;;20.90;9.83;;;;;;;14.81;90.73;100162.42;124242;1109;102384;-78
2023/11/02 11:41:48;;;;;;;19.40;9.37;;;;;;;14.83;91.05;100155.40;124086;1109;104213;-79
2023/11/02 11:44:22;;;;;;;19.23;9.40;;;;;;;14.78;91.02;100151.83;124211;1109;104204;-78
2023/11/02 11:46:57;;;;;;;17.50;9.23;;;;;;;14.74;89.72;100159.70;124220;1109;104239;-79
2023/11/02 11:49:48;;;;;;;18.90;8.90;;;;;;;14.69;89.73;100148.20;123944;1108;104233;-80
2023/11/02 11:52:29;;;;;;;15.27;7.33;;;;;;;14.69;89.41;100148.20;123918;1109;102234;-78
2023/11/02 11:55:22;;;;;;;14.57;7.70;;;;;;;14.62;90.07;100150.73;124246;1109;104246;-79
2023/11/02 11:57:59;;;;;;;14.73;7.30;;;;;;;14.59;89.48;100151.55;124052;1106;104242;-79
2023/11/02 12:00:33;;;;;;;15.03;7.70;;;;;;;14.55;89.38;100144.43;124176;1109;104191;-80
2023/11/02 12:03:25;;;;;;;16.33;8.20;;;;;;;14.52;88.23;100141.75;124095;1109;104239;-77
2023/11/02 12:06:05;;;;;;;15.03;7.00;;;;;;;14.50;89.03;100149.64;124291;1109;102262;-78
2023/11/02 12:08:45;;;;;;;13.80;7.05;;;;;;;14.49;88.44;100155.81;125584;1106;102713;-79
2023/11/02 12:11:22;;;;;;;15.17;7.40;;;;;;;14.47;88.06;100151.37;125686;1108;102502;-79
2023/11/02 12:14:03;;;;;;;15.27;7.63;;;;;;;14.46;88.22;100152.22;125562;1108;101900;-79
2023/11/02 12:16:40;;;;;;;17.20;7.93;;;;;;;14.43;87.84;100147.80;124887;1107;103644;-79
2023/11/02 12:19:12;;;;;;;15.93;7.93;;;;;;;14.41;87.64;100136.31;124189;1109;102220;-78
2023/11/02 12:24:57;;;;;;;14.37;8.00;;;;;;;14.39;87.26;100138.93;123902;1109;104175;-77
2023/11/02 12:27:33;;;;;;;14.73;7.73;;;;;;;14.39;86.80;100135.41;125666;1106;102800;-74
2023/11/02 12:30:06;;;;;;;12.80;7.27;;;;;;;14.39;86.66;100133.66;125257;1108;102326;-77
2023/11/02 12:32:43;;;;;;;13.17;7.00;;;;;;;14.42;86.27;100134.59;124027;1109;104181;-76
2023/11/02 12:35:20;;;;;;;16.40;7.67;;;;;;;14.42;86.58;100137.23;123955;1109;104401;-78
2023/11/02 12:38:07;;;;;;;16.40;8.60;;;;;;;14.42;85.98;100127.55;123933;1108;111613;-76
2023/11/02 12:40:52;;;;;;;20.53;8.03;;;;;;;14.39;86.03;100120.45;124048;1108;102143;-77
2023/11/02 12:43:24;;;;;;;16.97;8.53;;;;;;;14.37;85.82;100130.11;124014;1109;104393;-76
2023/11/02 12:46:08;;;;;;;14.63;7.83;;;;;;;14.33;85.50;100123.00;124015;1109;104348;-76
2023/11/02 12:48:42;;;;;;;15.53;8.00;;;;;;;14.28;85.39;100122.06;124658;1109;104127;-77
2023/11/02 12:51:31;;;;;;;15.18;7.78;;;;;;;14.25;85.17;100121.14;124772;1109;103160;-79
2023/11/02 12:54:12;;;;;;;16.00;7.80;;;;;;;14.20;84.80;100110.52;124922;1108;104335;-79
2023/11/02 12:56:58;;;;;;;14.40;7.43;;;;;;;14.18;84.71;100114.90;124491;1108;104249;-79
2023/11/02 12:59:35;;;;;;;15.30;7.20;;;;;;;14.18;84.46;100117.53;123660;1108;104550;-78
2023/11/02 13:02:11;;;;;;;13.60;7.33;;;;;;;14.21;85.32;100125.50;124014;1109;104313;-75
2023/11/02 13:04:53;;;;;;;16.63;7.00;;;;;;;14.25;85.40;100113.23;124141;1109;104261;-78
2023/11/02 13:07:26;;;;;;;11.47;6.30;;;;;;;14.28;84.30;100114.14;123921;1109;104338;-76
2023/11/02 13:10:06;;;;;;;13.17;6.60;;;;;;;14.31;84.93;100108.91;123941;1109;104300;-76
2023/11/02 13:12:42;;;;;;;14.67;6.70;;;;;;;14.34;84.19;100101.04;123649;1109;104361;-73
2023/11/02 13:15:12;;;;;;;;;;;;;;;14.35;84.03;100101.91;125378;1108;104294;-74
2023/11/02 13:17:48;;;;;;;17.23;7.03;;;;;;;14.38;84.38;100101.95;124137;1109;104204;-74
2023/11/02 13:20:23;;;;;;;14.47;6.47;;;;;;;14.42;84.61;100097.63;124020;1108;104277;-74
2023/11/02 13:23:01;;;;;;;14.23;6.87;;;;;;;14.48;84.21;100095.95;123757;1109;102112;-73
2023/11/02 13:25:36;;;;;;;13.27;6.90;;;;;;;14.54;83.81;100092.52;124131;1109;104171;-76
2023/11/02 13:28:11;;;;;;;15.37;6.60;;;;;;;14.58;84.18;100090.79;124310;1109;104242;-76
2023/11/02 13:30:43;;;;;;;15.60;6.20;;;;;;;14.57;83.50;100082.00;124341;1109;104213;-77
2023/11/02 13:33:20;;;;;;;11.83;6.50;;;;;;;14.58;83.85;100070.55;124350;1108;102940;-78
2023/11/02 13:35:52;;;;;;;13.13;6.23;;;;;;;14.60;83.77;100078.48;124269;1109;102204;-76
2023/11/02 13:38:24;;;;;;;14.13;6.53;;;;;;;14.60;83.26;100074.15;123808;1108;104345;-75
2023/11/02 13:40:57;;;;;;;12.97;6.13;;;;;;;14.60;83.38;100075.84;123985;1109;102924;-73
2023/11/02 13:43:31;;;;;;;11.15;6.10;;;;;;;14.50;82.07;100056.38;124207;1108;104243;-78
2023/11/02 13:46:14;;;;;;;13.05;6.33;;;;;;;14.55;81.94;100073.14;124185;1109;104227;-77